Time;durP1;ratioP1;P1;durP2;ratioP2;P2;SDS_P1;SDS_P2;PMS_P1;PMS_P2;Temp;Humidity;BMP_temperature;BMP_pressure;BME280_temperature;BME280_humidity;BME280_pressure;Samples;Min_cycle;Max_cycle;Signal;HPM_P1;HPM_P2
2022/05/04 00:00:24;;;;;;;15.05;9.50;;;;;;;11.44;69.74;100293.05;2875205;81;21094;-83
2022/05/04 00:04:27;;;;;;;10.60;7.40;;;;;;;11.36;69.96;100287.05;2873948;81;20996;-83
2022/05/04 00:08:28;;;;;;;10.82;8.08;;;;;;;11.36;69.74;100296.84;2841710;81;21028;-83
2022/05/04 00:12:29;;;;;;;14.60;8.15;;;;;;;11.32;69.87;100298.09;2868915;81;21048;-83
2022/05/04 00:16:30;;;;;;;7.67;6.17;;;;;;;11.31;69.87;100299.06;2803684;84;21001;-83
2022/05/04 00:20:31;;;;;;;12.00;7.60;;;;;;;11.25;69.29;100300.42;2837174;83;22161;-83
2022/05/04 00:24:32;;;;;;;11.30;8.20;;;;;;;11.13;68.96;100286.33;2836002;83;21074;-83
2022/05/04 00:28:33;;;;;;;8.55;7.20;;;;;;;11.02;70.34;100290.40;2818507;81;21042;-83
2022/05/04 00:32:35;;;;;;;7.95;7.17;;;;;;;10.70;72.05;100295.59;2838727;82;22007;-83
2022/05/04 00:36:36;;;;;;;9.08;7.20;;;;;;;10.43;72.88;100296.04;2879849;81;21051;-83
2022/05/04 00:40:37;;;;;;;11.05;7.37;;;;;;;10.43;73.30;100304.87;2864986;82;21445;-83
2022/05/04 00:44:40;;;;;;;9.80;8.03;;;;;;;10.37;75.17;100307.98;2881504;80;21047;-83
2022/05/04 00:48:41;;;;;;;10.72;7.50;;;;;;;10.33;75.84;100316.35;2870948;81;21563;-83
2022/05/04 00:52:45;;;;;;;10.65;6.95;;;;;;;10.35;76.14;100312.58;2888961;80;21060;-83
2022/05/04 00:56:46;;;;;;;10.60;7.85;;;;;;;10.38;76.20;100312.33;2854384;81;21102;-84
2022/05/04 01:00:51;;;;;;;10.58;7.90;;;;;;;10.41;76.32;100319.25;2918230;80;21018;-83
2022/05/04 01:04:50;;;;;;;9.68;6.80;;;;;;;10.57;76.21;100313.05;2911400;80;22295;-83
2022/05/04 01:08:53;;;;;;;14.10;7.42;;;;;;;10.71;75.71;100307.93;2918684;80;21479;-83
2022/05/04 01:12:54;;;;;;;9.23;6.72;;;;;;;10.86;75.27;100312.46;2907094;80;21061;-83
2022/05/04 01:16:56;;;;;;;10.00;8.20;;;;;;;11.10;74.65;100319.88;2827177;80;21003;-83
2022/05/04 01:20:57;;;;;;;9.23;7.20;;;;;;;11.14;74.52;100321.30;2911171;81;21034;-83
2022/05/04 01:24:58;;;;;;;16.32;7.58;;;;;;;11.13;74.43;100323.59;2893930;80;21070;-83
2022/05/04 01:29:01;;;;;;;10.80;7.05;;;;;;;11.16;73.75;100320.67;2834599;81;21083;-83
2022/05/04 01:33:03;;;;;;;12.78;8.10;;;;;;;11.24;73.47;100312.91;2876911;81;21074;-82
2022/05/04 01:37:04;;;;;;;13.83;7.78;;;;;;;11.28;73.17;100318.80;2893899;81;21047;-83
2022/05/04 01:42:02;;;;;;;11.35;7.50;;;;;;;11.28;73.09;100325.45;2884732;81;21055;-83
2022/05/04 01:45:09;;;;;;;8.28;6.65;;;;;;;11.28;73.18;100326.78;2854234;81;21043;-83
2022/05/04 01:49:11;;;;;;;9.15;6.80;;;;;;;11.31;74.02;100329.69;2887859;81;21101;-83
2022/05/04 01:53:12;;;;;;;9.00;6.75;;;;;;;11.37;74.54;100330.48;2885186;81;21103;-83
2022/05/04 01:57:14;;;;;;;10.15;7.65;;;;;;;11.38;74.97;100322.86;2904188;81;21024;-84
2022/05/04 02:01:15;;;;;;;10.70;7.67;;;;;;;11.26;75.40;100326.94;2908756;80;21093;-83
2022/05/04 02:05:17;;;;;;;9.93;6.72;;;;;;;11.16;75.73;100329.99;2872661;82;21152;-83
2022/05/04 02:09:18;;;;;;;12.45;6.95;;;;;;;11.11;74.99;100332.20;2902705;81;21032;-84
2022/05/04 02:13:20;;;;;;;9.48;7.62;;;;;;;11.12;74.88;100325.44;2883106;81;21047;-84
2022/05/04 02:17:21;;;;;;;10.45;6.78;;;;;;;11.11;74.16;100328.21;2832089;81;20993;-84
2022/05/04 02:21:22;;;;;;;7.62;6.42;;;;;;;11.12;74.06;100341.87;2896010;81;21401;-84
2022/05/04 02:25:23;;;;;;;9.53;7.03;;;;;;;11.08;74.57;100349.27;2891800;81;21298;-83
2022/05/04 02:29:24;;;;;;;8.23;6.70;;;;;;;10.97;74.74;100340.84;2874750;81;21097;-84
2022/05/04 02:33:26;;;;;;;14.00;8.55;;;;;;;10.96;74.58;100347.64;2876481;81;21014;-84
2022/05/04 02:41:33;;;;;;;8.60;6.60;;;;;;;10.49;74.88;100345.23;3125838;73;22925;-82
2022/05/04 02:45:34;;;;;;;8.25;6.97;;;;;;;10.38;74.68;100341.58;3078358;75;20971;-82
2022/05/04 02:49:35;;;;;;;8.33;7.08;;;;;;;10.27;74.66;100346.92;3092173;75;21018;-82
2022/05/04 02:53:36;;;;;;;8.35;6.78;;;;;;;10.12;74.63;100342.32;3051318;75;21019;-82
2022/05/04 02:57:38;;;;;;;9.65;7.03;;;;;;;10.09;74.31;100343.90;3078552;75;20979;-81
2022/05/04 03:06:07;;;;;;;10.23;7.08;;;;;;;9.90;75.08;100335.22;3045058;75;21002;-83
2022/05/04 03:10:09;;;;;;;8.73;6.97;;;;;;;9.87;75.00;100342.93;3070673;75;21026;-82
2022/05/04 03:14:11;;;;;;;9.45;6.83;;;;;;;9.81;75.58;100344.75;3084196;75;21021;-83
2022/05/04 03:18:13;;;;;;;9.33;7.90;;;;;;;9.75;75.43;100350.05;3103709;74;20984;-82
2022/05/04 03:22:14;;;;;;;20.15;7.30;;;;;;;9.76;75.32;100361.03;3020291;77;21056;-82
2022/05/04 03:26:15;;;;;;;8.03;7.22;;;;;;;9.71;75.54;100361.38;2998516;77;21022;-82
2022/05/04 03:30:16;;;;;;;12.33;9.00;;;;;;;9.72;75.66;100371.05;3016147;77;21039;-82
2022/05/04 03:34:18;;;;;;;16.90;11.50;;;;;;;9.67;76.18;100378.53;3014589;77;21002;-82
2022/05/04 03:38:19;;;;;;;22.48;15.78;;;;;;;9.61;76.17;100380.34;2996028;77;21488;-82
2022/05/04 03:42:20;;;;;;;15.78;10.70;;;;;;;9.55;76.40;100366.20;3015039;77;21717;-83
2022/05/04 03:46:25;;;;;;;18.75;12.85;;;;;;;9.57;76.51;100368.27;2966975;77;21626;-82
2022/05/04 03:50:26;;;;;;;18.05;12.45;;;;;;;9.68;76.29;100370.09;2969895;78;21011;-82
2022/05/04 03:54:27;;;;;;;24.18;17.05;;;;;;;9.71;76.25;100361.38;2990070;77;21015;-82
2022/05/04 03:58:28;;;;;;;23.45;15.43;;;;;;;9.74;76.45;100363.47;2996883;77;21047;-81
2022/05/04 04:02:29;;;;;;;17.25;13.32;;;;;;;9.92;76.86;100359.35;3006401;77;21019;-82
2022/05/04 04:06:32;;;;;;;49.95;14.98;;;;;;;10.11;76.53;100368.54;3019385;76;21361;-84
2022/05/04 04:10:33;;;;;;;16.60;11.48;;;;;;;10.39;77.66;100377.00;3072463;76;21000;-83
2022/05/04 04:14:34;;;;;;;14.68;10.40;;;;;;;11.03;77.38;100382.09;3065392;76;21048;-81
2022/05/04 04:18:35;;;;;;;13.83;9.78;;;;;;;11.69;76.44;100378.87;3031225;76;21059;-81
2022/05/04 04:22:36;;;;;;;17.25;11.15;;;;;;;12.02;74.23;100378.79;3020375;76;20995;-81
2022/05/04 04:26:38;;;;;;;11.40;8.93;;;;;;;12.55;73.14;100381.72;3047613;76;20963;-81
2022/05/04 04:30:40;;;;;;;11.78;8.85;;;;;;;13.03;73.16;100384.62;3028366;76;20963;-81
2022/05/04 04:34:41;;;;;;;18.70;10.53;;;;;;;13.59;71.03;100395.61;3053166;76;21042;-81
2022/05/04 04:38:43;;;;;;;18.05;10.60;;;;;;;13.85;70.58;100396.67;3053448;76;20999;-81
2022/05/04 04:42:44;;;;;;;12.40;9.28;;;;;;;13.50;68.87;100393.30;3042157;76;21041;-81
2022/05/04 04:46:45;;;;;;;16.35;10.20;;;;;;;13.15;70.22;100394.17;3017578;76;21010;-81
2022/05/04 04:50:48;;;;;;;12.28;10.93;;;;;;;12.81;71.06;100396.73;2995535;76;21687;-81
2022/05/04 04:54:49;;;;;;;14.63;9.58;;;;;;;12.62;72.11;100392.22;3017319;76;21101;-81
2022/05/04 04:58:50;;;;;;;18.07;10.60;;;;;;;12.49;72.48;100397.80;3025014;76;21009;-81
2022/05/04 05:02:51;;;;;;;11.90;10.10;;;;;;;12.42;72.47;100400.16;3054230;76;21017;-81
2022/05/04 05:06:52;;;;;;;9.63;8.28;;;;;;;12.43;74.37;100397.84;3054387;76;21132;-81
2022/05/04 05:10:53;;;;;;;12.85;8.65;;;;;;;12.41;74.99;100409.15;3043279;76;21680;-81
2022/05/04 05:19:13;;;;;;;13.60;9.98;;;;;;;12.44;76.01;100401.34;3060095;76;21060;-81
2022/05/04 05:23:14;;;;;;;11.90;9.05;;;;;;;12.77;76.34;100404.67;3060470;76;21038;-81
2022/05/04 05:27:15;;;;;;;8.50;7.37;;;;;;;12.94;75.78;100406.33;3063613;76;20990;-81
2022/05/04 05:31:16;;;;;;;10.60;9.05;;;;;;;13.08;75.00;100411.75;3060238;76;20983;-81
2022/05/04 05:35:18;;;;;;;10.00;7.33;;;;;;;13.51;76.66;100423.05;2997084;76;21075;-81
2022/05/04 05:39:19;;;;;;;18.98;8.98;;;;;;;14.05;76.35;100422.50;3040954;76;21047;-81
2022/05/04 05:43:20;;;;;;;9.00;6.70;;;;;;;14.73;75.16;100423.23;3100781;76;20968;-81
2022/05/04 05:47:21;;;;;;;15.30;8.00;;;;;;;15.53;74.14;100418.02;3063386;76;21001;-81
2022/05/04 05:51:22;;;;;;;8.43;7.62;;;;;;;16.13;68.23;100416.45;3030793;77;21030;-81
2022/05/04 05:55:23;;;;;;;10.82;7.58;;;;;;;16.32;65.87;100422.59;3093617;76;21071;-81
2022/05/04 05:59:24;;;;;;;8.38;6.65;;;;;;;16.48;64.84;100419.13;3054412;74;20999;-81
2022/05/04 06:03:25;;;;;;;8.23;6.62;;;;;;;16.74;63.01;100414.17;3028981;76;21038;-81
2022/05/04 06:07:26;;;;;;;9.98;7.58;;;;;;;17.11;63.51;100410.78;3036673;76;20990;-82
2022/05/04 06:11:28;;;;;;;9.15;8.15;;;;;;;17.80;63.11;100407.73;3088275;76;21037;-81
2022/05/04 06:15:29;;;;;;;9.30;7.72;;;;;;;18.22;60.13;100411.22;3066746;76;20995;-81
2022/05/04 06:19:30;;;;;;;10.63;6.95;;;;;;;18.73;59.84;100410.50;3031658;76;20998;-81
2022/05/04 06:23:31;;;;;;;13.20;10.15;;;;;;;19.24;55.43;100406.00;2984907;77;20909;-81
2022/05/04 06:27:32;;;;;;;10.68;7.50;;;;;;;19.29;53.88;100401.42;3053770;76;21092;-81
2022/05/04 06:35:53;;;;;;;9.73;7.35;;;;;;;20.12;54.90;100411.80;3059067;76;21022;-82
2022/05/04 06:39:54;;;;;;;8.65;6.97;;;;;;;20.32;55.37;100417.13;3040999;76;21035;-82
2022/05/04 06:43:55;;;;;;;10.50;7.62;;;;;;;20.47;55.13;100424.72;2973734;76;21010;-82
2022/05/04 06:47:57;;;;;;;14.53;8.15;;;;;;;20.48;53.95;100425.58;3026908;76;21075;-82
2022/05/04 06:51:58;;;;;;;9.68;6.90;;;;;;;20.64;53.87;100437.53;3045956;76;20994;-82
2022/05/04 06:56:00;;;;;;;9.80;6.58;;;;;;;20.77;52.10;100437.34;2884917;79;20997;-82
2022/05/04 07:00:05;;;;;;;10.30;8.08;;;;;;;21.00;51.85;100435.03;3042819;76;20999;-83
2022/05/04 07:04:06;;;;;;;10.40;8.08;;;;;;;21.09;51.23;100433.91;3068265;76;20964;-83
2022/05/04 07:08:07;;;;;;;19.25;8.48;;;;;;;21.38;51.58;100425.33;3065224;76;21015;-81
2022/05/04 07:12:09;;;;;;;10.70;9.00;;;;;;;21.52;48.33;100429.02;3031204;77;20925;-81
2022/05/04 07:16:11;;;;;;;8.98;7.72;;;;;;;21.76;49.96;100427.77;3072212;76;21071;-81
2022/05/04 07:20:12;;;;;;;10.25;8.05;;;;;;;22.19;49.86;100426.82;3079962;76;20960;-81
2022/05/04 07:24:14;;;;;;;10.30;8.98;;;;;;;22.43;49.81;100431.95;3070274;76;20966;-81
2022/05/04 07:28:15;;;;;;;10.08;9.03;;;;;;;22.58;49.12;100431.84;3072931;76;21435;-81
2022/05/04 07:32:16;;;;;;;11.25;9.65;;;;;;;22.70;47.77;100432.09;3003890;77;21016;-81
2022/05/04 07:36:17;;;;;;;11.05;9.30;;;;;;;22.64;47.65;100431.88;2993669;77;20964;-81
2022/05/04 07:44:38;;;;;;;14.68;9.05;;;;;;;22.23;48.20;100435.39;3061965;76;20968;-81
2022/05/04 07:48:39;;;;;;;13.50;8.85;;;;;;;22.15;49.40;100431.47;3060051;76;20940;-81
2022/05/04 07:52:41;;;;;;;10.90;8.95;;;;;;;22.13;49.88;100434.39;3058769;76;20988;-81
2022/05/04 07:56:42;;;;;;;12.45;8.88;;;;;;;22.04;49.47;100441.84;3065340;76;20999;-81
2022/05/04 08:05:03;;;;;;;10.00;8.83;;;;;;;22.08;49.34;100440.41;3066459;77;20981;-81
2022/05/04 08:09:04;;;;;;;16.17;9.48;;;;;;;22.35;50.37;100444.61;3066186;76;20956;-82
2022/05/04 08:13:05;;;;;;;13.10;9.55;;;;;;;22.62;49.75;100448.86;3066639;77;21011;-82
2022/05/04 08:17:07;;;;;;;11.48;9.30;;;;;;;22.77;47.91;100447.35;3054875;76;20995;-82
2022/05/04 08:21:09;;;;;;;11.83;10.60;;;;;;;22.83;48.99;100447.06;3036473;76;21052;-81
2022/05/04 08:25:10;;;;;;;14.95;10.32;;;;;;;22.85;48.65;100453.12;3052910;76;21015;-83
2022/05/04 08:29:12;;;;;;;13.78;9.75;;;;;;;22.93;47.81;100461.59;3074747;75;20981;-83
2022/05/04 08:33:13;;;;;;;19.37;10.63;;;;;;;23.04;50.03;100459.63;3067435;76;21003;-82
2022/05/04 08:37:14;;;;;;;12.75;11.15;;;;;;;22.97;48.70;100456.89;3064229;76;21018;-82
2022/05/04 08:41:15;;;;;;;9.80;8.05;;;;;;;23.03;49.89;100461.21;2945111;74;20989;-83
2022/05/04 08:45:16;;;;;;;11.60;9.43;;;;;;;23.08;48.38;100456.81;3051040;76;21008;-83
2022/05/04 08:49:19;;;;;;;10.70;8.88;;;;;;;23.02;49.37;100463.61;3064348;76;20975;-84
2022/05/04 08:53:21;;;;;;;20.43;10.95;;;;;;;22.71;50.27;100458.16;3066290;76;20983;-84
2022/05/04 08:57:22;;;;;;;9.93;8.80;;;;;;;22.47;50.60;100454.40;3068578;76;21460;-84
2022/05/04 09:01:26;;;;;;;9.90;8.03;;;;;;;22.35;48.99;100455.98;3027212;77;21054;-84
2022/05/04 09:05:29;;;;;;;14.05;6.83;;;;;;;22.31;50.27;100450.66;3065702;76;22203;-83
2022/05/04 09:09:34;;;;;;;12.60;9.30;;;;;;;22.16;49.73;100454.81;3076763;76;20992;-83
2022/05/04 09:13:40;;;;;;;9.40;6.78;;;;;;;21.98;49.66;100448.02;3069785;76;20986;-85
2022/05/04 09:17:42;;;;;;;10.15;6.40;;;;;;;22.21;50.54;100438.29;3064826;76;21012;-84
2022/05/04 09:21:45;;;;;;;8.05;6.00;;;;;;;22.09;49.57;100439.36;3042015;76;20983;-85
2022/05/04 09:25:52;;;;;;;13.30;6.00;;;;;;;22.14;49.12;100436.57;3067557;76;21558;-82
2022/05/04 09:29:59;;;;;;;7.45;6.30;;;;;;;22.30;50.29;100438.97;3040583;76;20952;-83
2022/05/04 09:34:06;;;;;;;6.90;5.33;;;;;;;22.42;47.67;100433.00;3062009;76;20921;-82
2022/05/04 09:47:03;;;;;;;9.95;4.92;;;;;;;22.93;46.88;100437.19;3066283;76;20983;-83
2022/05/04 09:51:07;;;;;;;6.72;5.55;;;;;;;22.89;46.49;100431.33;3105814;76;21043;-83
2022/05/04 09:55:19;;;;;;;9.45;5.37;;;;;;;22.78;46.33;100431.91;3054404;76;20961;-82
2022/05/04 09:59:23;;;;;;;7.65;4.92;;;;;;;22.85;45.40;100426.50;3037742;76;21022;-83
2022/05/04 10:03:24;;;;;;;3.22;2.15;;;;;;;22.94;44.40;100431.54;3084175;75;20998;-83
2022/05/04 10:07:27;;;;;;;5.25;3.55;;;;;;;23.07;41.49;100423.95;3061642;76;20975;-85
2022/05/04 10:11:30;;;;;;;4.95;2.77;;;;;;;23.20;41.33;100421.81;3059628;76;20974;-84
2022/05/04 10:15:34;;;;;;;4.53;2.65;;;;;;;23.35;40.82;100417.58;3063758;76;21015;-85
2022/05/04 10:20:06;;;;;;;4.80;3.08;;;;;;;23.44;41.65;100414.14;3018993;77;20991;-84
2022/05/04 10:24:09;;;;;;;2.80;2.20;;;;;;;23.45;41.44;100413.09;3079424;75;21015;-87
2022/05/04 10:28:15;;;;;;;7.17;2.58;;;;;;;23.46;42.94;100412.05;3051166;74;20975;-84
2022/05/04 10:32:44;;;;;;;3.08;2.30;;;;;;;23.35;41.56;100405.87;3054923;76;20976;-84
2022/05/04 10:36:48;;;;;;;2.47;2.08;;;;;;;23.20;41.04;100398.75;2964317;78;21050;-84
2022/05/04 10:41:09;;;;;;;34.67;7.05;;;;;;;23.27;42.56;100396.05;2958984;78;21011;-85
2022/05/04 10:45:13;;;;;;;3.75;2.50;;;;;;;23.14;41.66;100392.77;2970578;79;21018;-86
2022/05/04 10:49:39;;;;;;;3.83;2.47;;;;;;;23.06;41.67;100393.80;2945967;79;21072;-84
2022/05/04 10:53:50;;;;;;;6.62;2.58;;;;;;;23.06;41.07;100394.34;2955649;79;21072;-85
2022/05/04 10:57:57;;;;;;;7.53;3.72;;;;;;;23.21;42.01;100394.14;2962716;79;21101;-84
2022/05/04 11:02:10;;;;;;;3.02;2.72;;;;;;;23.10;41.01;100388.30;2952765;79;21061;-85
2022/05/04 11:06:34;;;;;;;4.90;3.05;;;;;;;23.02;41.14;100389.83;2872849;79;20952;-84
2022/05/04 11:10:34;;;;;;;3.15;2.52;;;;;;;23.20;43.79;100388.41;2693291;85;21087;-85
2022/05/04 11:14:36;;;;;;;4.37;2.92;;;;;;;23.29;42.46;100383.64;2828043;82;20995;-83
2022/05/04 11:18:38;;;;;;;5.00;2.40;;;;;;;23.27;42.19;100380.30;2842665;82;21506;-86
2022/05/04 11:22:39;;;;;;;17.23;6.15;;;;;;;23.02;42.57;100383.59;2830687;82;21038;-86
2022/05/04 11:26:45;;;;;;;32.05;6.90;;;;;;;22.84;43.09;100376.88;2845906;82;21039;-85
2022/05/04 11:30:46;;;;;;;3.75;2.52;;;;;;;22.81;43.28;100376.75;2856830;82;21003;-86
2022/05/04 11:34:48;;;;;;;11.75;5.30;;;;;;;22.95;45.96;100370.83;2850167;82;21453;-84
2022/05/04 11:38:49;;;;;;;7.05;3.15;;;;;;;23.07;43.85;100372.95;2845595;82;21598;-84
2022/05/04 11:42:51;;;;;;;3.52;3.22;;;;;;;22.92;43.96;100368.53;2816900;82;21669;-85
2022/05/04 11:46:54;;;;;;;3.65;3.10;;;;;;;22.94;43.68;100375.13;2844900;82;21642;-85
2022/05/04 11:50:55;;;;;;;3.30;2.92;;;;;;;23.08;42.45;100370.55;2847717;82;21086;-87
2022/05/04 11:55:02;;;;;;;3.20;2.90;;;;;;;23.18;42.98;100364.72;2853287;82;21085;-87
2022/05/04 11:59:05;;;;;;;4.00;2.90;;;;;;;23.30;43.65;100359.02;2857230;82;21287;-87
2022/05/04 12:03:07;;;;;;;4.83;2.77;;;;;;;23.42;43.19;100357.88;2845490;81;21003;-87
2022/05/04 12:07:08;;;;;;;3.83;2.75;;;;;;;23.37;42.90;100356.28;2876376;79;21027;-87
2022/05/04 12:11:10;;;;;;;4.65;3.40;;;;;;;23.28;41.89;100358.38;2888227;79;21557;-87
2022/05/04 12:15:11;;;;;;;3.90;2.37;;;;;;;23.32;41.97;100350.66;2921371;79;21058;-86
2022/05/04 12:19:13;;;;;;;2.83;2.58;;;;;;;23.44;41.62;100340.85;2912147;80;21461;-87
2022/05/04 12:23:15;;;;;;;3.37;2.70;;;;;;;23.57;43.02;100339.15;2902135;79;21506;-87
2022/05/04 12:27:17;;;;;;;4.25;2.12;;;;;;;23.61;41.73;100333.63;2903415;79;21013;-87
2022/05/04 12:35:43;;;;;;;3.30;2.52;;;;;;;23.85;43.14;100324.50;2882752;80;21066;-89
2022/05/04 12:39:44;;;;;;;3.45;2.87;;;;;;;23.73;42.81;100323.78;2868469;80;21017;-88
2022/05/04 12:43:48;;;;;;;4.92;2.25;;;;;;;23.65;41.82;100323.47;2927402;79;21029;-88
2022/05/04 12:47:49;;;;;;;3.90;2.55;;;;;;;23.56;43.43;100321.19;2908508;79;20935;-89
2022/05/04 12:51:52;;;;;;;3.17;2.72;;;;;;;23.46;41.44;100319.76;2932677;79;20952;-88
2022/05/04 13:00:15;;;;;;;3.50;3.20;;;;;;;23.59;41.70;100311.30;2930298;80;21005;-87
2022/05/04 13:04:17;;;;;;;5.28;3.47;;;;;;;23.71;43.27;100308.77;2922793;80;21007;-87
2022/05/04 13:08:19;;;;;;;2.85;2.10;;;;;;;23.62;40.84;100305.44;2883733;81;21072;-87
2022/05/04 13:12:20;;;;;;;4.42;2.37;;;;;;;23.60;42.16;100303.46;2907172;79;20939;-87
2022/05/04 13:16:21;;;;;;;3.33;3.00;;;;;;;23.71;44.37;100301.44;2850263;81;21000;-89
2022/05/04 13:20:23;;;;;;;6.40;2.30;;;;;;;23.59;42.56;100295.01;2720335;82;21035;-88
2022/05/04 13:24:24;;;;;;;5.78;2.45;;;;;;;23.38;42.30;100299.61;2930400;79;21092;-88
2022/05/04 13:28:26;;;;;;;8.55;3.72;;;;;;;23.40;41.77;100293.47;2897265;81;21592;-93
2022/05/04 13:32:27;;;;;;;4.97;2.62;;;;;;;23.47;42.09;100295.64;2909471;79;20999;-89
2022/05/04 13:36:40;;;;;;;4.87;3.05;;;;;;;23.39;42.99;100289.91;2928241;81;21068;-89
2022/05/04 13:40:42;;;;;;;5.50;2.90;;;;;;;23.47;43.97;100287.50;2914011;81;21057;-88
2022/05/04 13:44:44;;;;;;;7.12;4.40;;;;;;;23.55;42.04;100279.66;2912962;79;21345;-88
2022/05/04 13:48:50;;;;;;;13.08;3.30;;;;;;;23.71;45.04;100281.07;2894564;79;21028;-88
2022/05/04 13:57:11;;;;;;;3.08;2.30;;;;;;;23.94;41.79;100274.30;2753892;85;21070;-88
2022/05/04 14:01:12;;;;;;;6.00;2.33;;;;;;;24.07;40.99;100268.86;2753916;84;21038;-87
2022/05/04 14:05:14;;;;;;;5.65;2.30;;;;;;;23.99;42.57;100267.73;2745225;85;21040;-88
2022/05/04 14:09:15;;;;;;;3.10;1.85;;;;;;;23.94;41.20;100267.52;2780841;83;21071;-88
2022/05/04 14:13:24;;;;;;;4.50;2.27;;;;;;;23.87;40.85;100274.87;2717676;86;21068;-88
2022/05/04 14:17:21;;;;;;;2.00;1.85;;;;;;;23.97;41.01;100284.73;2712069;86;21018;-88
2022/05/04 14:21:22;;;;;;;10.48;3.35;;;;;;;24.14;41.07;100276.14;2713474;86;21036;-90
2022/05/04 14:25:24;;;;;;;4.67;1.85;;;;;;;24.28;41.43;100273.67;2703925;86;21092;-91
2022/05/04 14:29:25;;;;;;;5.28;1.87;;;;;;;24.19;43.23;100273.63;2696308;82;21097;-91
2022/05/04 14:33:26;;;;;;;3.52;2.22;;;;;;;24.18;42.01;100271.42;2814531;82;20954;-86
2022/05/04 14:37:29;;;;;;;4.53;2.50;;;;;;;24.23;41.22;100274.86;2806355;82;21822;-88
2022/05/04 14:41:30;;;;;;;2.67;1.80;;;;;;;24.33;41.46;100271.13;2849013;82;21762;-89
2022/05/04 14:45:32;;;;;;;3.37;1.62;;;;;;;24.32;41.57;100264.56;2812836;83;22243;-87
2022/05/04 14:49:33;;;;;;;3.27;2.15;;;;;;;24.13;40.53;100271.24;2805645;81;20988;-88
2022/05/04 14:53:34;;;;;;;4.65;1.62;;;;;;;24.02;42.91;100267.32;2861925;82;20981;-90
2022/05/04 14:57:35;;;;;;;5.85;2.50;;;;;;;23.91;42.23;100262.01;2867371;81;21077;-91
2022/05/04 15:01:36;;;;;;;1.77;1.32;;;;;;;23.85;42.08;100264.74;2837420;81;20991;-90
2022/05/04 15:05:38;;;;;;;1.57;1.47;;;;;;;23.69;40.89;100257.37;2868646;81;21034;-87
2022/05/04 15:09:39;;;;;;;2.60;1.52;;;;;;;23.61;41.42;100253.01;2842831;82;21011;-90
2022/05/04 15:13:40;;;;;;;3.08;1.22;;;;;;;23.57;41.10;100255.00;2828322;82;21074;-91
2022/05/04 15:17:41;;;;;;;4.22;2.02;;;;;;;23.53;41.62;100256.78;2843398;82;20987;-90
2022/05/04 15:21:43;;;;;;;3.77;2.12;;;;;;;23.38;41.41;100254.83;2790697;82;21055;-88
2022/05/04 15:25:44;;;;;;;1.85;1.52;;;;;;;23.37;41.02;100258.58;2845231;82;21071;-88
2022/05/04 15:29:45;;;;;;;4.35;2.05;;;;;;;23.42;41.21;100252.53;2803265;82;21038;-88
2022/05/04 15:33:46;;;;;;;2.30;1.98;;;;;;;23.45;40.70;100250.75;2786944;82;21023;-89
2022/05/04 15:37:47;;;;;;;3.00;1.95;;;;;;;23.42;41.95;100253.38;2844606;82;21023;-88
2022/05/04 15:41:49;;;;;;;2.50;1.57;;;;;;;23.42;42.43;100251.17;2821399;82;21001;-90
2022/05/04 15:45:50;;;;;;;2.30;2.05;;;;;;;23.33;40.73;100250.56;2923228;80;21080;-90
2022/05/04 15:49:54;;;;;;;6.75;1.92;;;;;;;23.40;40.51;100247.33;2920992;80;21052;-89
2022/05/04 15:53:54;;;;;;;2.30;1.50;;;;;;;23.39;41.04;100256.52;2922938;79;20997;-91
2022/05/04 15:57:55;;;;;;;3.33;1.55;;;;;;;23.38;42.38;100249.39;2921359;80;21038;-91
2022/05/04 16:01:57;;;;;;;13.35;2.22;;;;;;;23.39;40.37;100251.09;2862445;81;21061;-88
2022/05/04 16:05:58;;;;;;;4.55;1.70;;;;;;;23.43;40.93;100248.27;2826033;82;21070;-88
2022/05/04 16:09:59;;;;;;;3.22;2.37;;;;;;;23.42;43.18;100245.23;2834121;82;21032;-89
2022/05/04 16:14:00;;;;;;;1.95;1.02;;;;;;;23.42;42.88;100245.75;2904000;79;20996;-88
2022/05/04 16:22:21;;;;;;;4.40;1.87;;;;;;;23.46;43.33;100242.91;2943039;79;21051;-89
2022/05/04 16:26:22;;;;;;;3.83;1.62;;;;;;;23.46;42.54;100242.91;2953499;79;21094;-89
2022/05/04 16:30:24;;;;;;;1.92;1.35;;;;;;;23.41;43.32;100239.50;2914753;79;21074;-89
2022/05/04 16:34:25;;;;;;;2.72;1.70;;;;;;;23.29;43.20;100233.04;2918028;79;21042;-89
2022/05/04 16:38:26;;;;;;;1.92;1.70;;;;;;;23.07;41.20;100235.96;2957091;80;21080;-90
2022/05/04 16:42:27;;;;;;;2.15;1.32;;;;;;;22.89;41.24;100228.44;2948231;79;21012;-89
2022/05/04 16:46:29;;;;;;;3.95;2.15;;;;;;;22.68;40.29;100228.95;2949517;79;21043;-93
2022/05/04 16:50:30;;;;;;;4.20;2.30;;;;;;;22.60;41.04;100230.02;2857230;79;21016;-89
2022/05/04 16:54:31;;;;;;;1.65;1.37;;;;;;;22.52;43.45;100232.41;2948356;79;20955;-91
2022/05/04 16:58:32;;;;;;;11.40;2.45;;;;;;;22.40;43.98;100233.50;2926561;79;21042;-92
2022/05/04 17:02:34;;;;;;;3.80;2.33;;;;;;;22.29;42.95;100231.89;2935705;80;21023;-91
2022/05/04 17:06:35;;;;;;;3.83;2.02;;;;;;;22.20;44.48;100232.59;2922695;80;21076;-93
2022/05/04 17:10:37;;;;;;;2.42;2.00;;;;;;;22.15;44.62;100228.31;2905541;80;21021;-94
2022/05/04 17:14:38;;;;;;;6.10;1.80;;;;;;;22.07;44.53;100237.45;2903015;81;21054;-92
2022/05/04 17:18:40;;;;;;;2.10;1.55;;;;;;;22.01;44.61;100229.65;2909790;81;20983;-90
2022/05/04 17:22:42;;;;;;;3.98;1.95;;;;;;;21.96;44.60;100230.75;2891593;81;21007;-92
2022/05/04 17:26:45;;;;;;;2.40;1.70;;;;;;;21.89;45.33;100232.61;2899753;81;20952;-92
2022/05/04 17:30:47;;;;;;;2.02;1.22;;;;;;;21.77;44.59;100237.23;2873854;81;21133;-91
2022/05/04 17:39:10;;;;;;;3.65;2.62;;;;;;;21.46;44.95;100238.52;2900810;81;21446;-92
2022/05/04 17:43:12;;;;;;;4.15;2.77;;;;;;;21.26;45.42;100245.13;2900497;80;21081;-92
2022/05/04 17:47:13;;;;;;;2.55;2.30;;;;;;;21.03;45.49;100246.72;2908281;81;20989;-87
2022/05/04 17:51:15;;;;;;;4.58;3.22;;;;;;;20.83;45.95;100250.95;2898601;81;21553;-89
2022/05/04 17:55:16;;;;;;;6.92;2.85;;;;;;;20.62;46.12;100247.70;2894036;81;20985;-87
2022/05/04 17:59:17;;;;;;;4.03;3.58;;;;;;;20.36;46.32;100255.86;2900732;81;21010;-90
2022/05/04 18:03:37;;;;;;;4.80;2.92;;;;;;;20.14;46.51;100254.97;2901764;81;21043;-89
2022/05/04 18:07:39;;;;;;;10.25;3.27;;;;;;;19.93;46.70;100255.78;2895519;81;21070;-90
2022/05/04 18:11:40;;;;;;;2.75;2.20;;;;;;;19.74;47.08;100258.49;2938494;80;21017;-90
2022/05/04 18:15:41;;;;;;;12.43;3.47;;;;;;;19.58;47.11;100264.92;2936469;79;21107;-91
2022/05/04 18:19:43;;;;;;;5.42;3.58;;;;;;;19.43;47.55;100269.79;2947251;80;21002;-92
2022/05/04 18:23:44;;;;;;;8.10;6.75;;;;;;;19.31;47.82;100268.59;2937439;79;21015;-91
2022/05/04 18:27:45;;;;;;;7.78;5.55;;;;;;;19.20;47.92;100273.39;2931459;79;21059;-87
2022/05/04 18:31:46;;;;;;;6.17;3.72;;;;;;;19.07;48.08;100273.20;2928794;80;21289;-91
2022/05/04 18:35:47;;;;;;;5.42;3.25;;;;;;;18.94;48.03;100277.30;2922031;79;21065;-89
2022/05/04 18:39:49;;;;;;;4.60;2.83;;;;;;;18.82;48.32;100280.94;2941560;79;21375;-89
2022/05/04 18:43:51;;;;;;;6.78;3.52;;;;;;;18.70;48.42;100294.48;2913851;80;20991;-90
2022/05/04 18:47:52;;;;;;;4.17;2.02;;;;;;;18.59;48.45;100290.88;2927197;79;21057;-91
2022/05/04 18:51:53;;;;;;;4.37;3.12;;;;;;;18.49;48.62;100295.15;2940032;79;21566;-90
2022/05/04 18:55:57;;;;;;;4.33;3.20;;;;;;;18.38;48.80;100298.56;2924296;79;21526;-90
2022/05/04 18:59:57;;;;;;;3.65;2.40;;;;;;;18.32;49.03;100304.66;2917220;80;21108;-90
2022/05/04 19:03:58;;;;;;;4.70;3.98;;;;;;;18.22;49.25;100308.92;2915561;80;21105;-89
2022/05/04 19:07:59;;;;;;;5.03;3.00;;;;;;;18.15;49.50;100307.92;2917425;80;21022;-91
2022/05/04 19:12:01;;;;;;;4.95;3.58;;;;;;;18.05;49.58;100312.17;2866950;80;21062;-90
2022/05/04 19:16:02;;;;;;;6.53;4.47;;;;;;;17.95;50.18;100311.52;2796176;82;21034;-90
2022/05/04 19:20:04;;;;;;;8.03;5.40;;;;;;;17.84;50.35;100315.42;2847059;82;21069;-90
2022/05/04 19:24:06;;;;;;;7.47;4.10;;;;;;;17.72;50.75;100320.34;2844546;82;21613;-91
2022/05/04 19:28:07;;;;;;;4.87;3.12;;;;;;;17.60;50.86;100321.20;2864369;82;21455;-89
2022/05/04 19:32:08;;;;;;;4.42;3.67;;;;;;;17.53;51.44;100321.05;2832219;82;21070;-91
2022/05/04 19:36:10;;;;;;;3.95;3.60;;;;;;;17.47;51.98;100327.09;2858739;82;20998;-91